KSPA/SPA METAR and TAF weather

Enter ICAO airport designator
Station Type Date Time Source
KSPA METAR 2022/08/12 14:55 UTC NOAA

KSPA 121455Z AUTO 01005KT 10SM SCT028 BKN035 OVC049 26/18 A3004 RMK AO2 LTG DSNT E AND SE


Station Type Date Time Source
KSPA Decoded METAR 2022/08/12 14:55 UTC NOAA

Spartanburg Memorial, SC, United States (KSPA) 34-55N 081-57W
Aug 12, 2022 - 10:55 AM EDT / 2022.08.12 1455 UTC
Wind: from the N (010 degrees) at 6 MPH (5 KT):0
Visibility: 10 mile(s):0
Sky conditions: overcast
Weather: Lightning observed
Temperature: 78 F (26 C)
Dew Point: 64 F (18 C)
Relative Humidity: 61%
Pressure (altimeter): 30.04 in. Hg (1017 hPa)
ob: KSPA 121455Z AUTO 01005KT 10SM SCT028 BKN035 OVC049 26/18 A3004 RMK AO2 LTG DSNT E AND SE
cycle: 15

Station Type Date Time Source
KSPA TAF UTC NOAA

Error!

Example: see airport list